This is the latest recevied weather packets stored in our database for station/object N5PUP-13. If no packets are shown the sender has not sent any weather packets the latest 10 day(s).
| Time | Temp. | Humidity | Pressure | Rain* | Wind** | Luminosity | Snow |
|---|---|---|---|---|---|---|---|
| 1787512200 | 37.78° C | 32% | 1016 hPa | 0 mm | - | - | - |
| 1787511900 | 37.22° C | 33% | 1016.1 hPa | 0 mm | - | - | - |
| 1787511600 | 37.78° C | 33% | 1016.2 hPa | 0 mm | - | - | - |
| 1787511300 | 37.22° C | 34% | 1016.2 hPa | 0 mm | - | - | - |
| 1787511000 | 37.22° C | 34% | 1016.4 hPa | 0 mm | - | - | - |
| 1787510700 | 37.22° C | 34% | 1016.5 hPa | 0 mm | - | - | - |
| 1787510400 | 36.67° C | 35% | 1016.7 hPa | 0 mm | - | - | - |
| 1787510100 | 36.11° C | 36% | 1016.8 hPa | 0 mm | - | - | - |
| 1787509800 | 35.56° C | 36% | 1016.8 hPa | 0 mm | - | - | - |
| 1787509500 | 36.11° C | 36% | 1016.9 hPa | 0 mm | - | - | - |
| 1787509200 | 36.67° C | 35% | 1017 hPa | 0 mm | - | - | - |
| 1787508900 | 36.11° C | 36% | 1017 hPa | 0 mm | - | - | - |
| 1787508600 | 35.56° C | 37% | 1017.1 hPa | 0 mm | - | - | - |
| 1787508300 | 35.56° C | 37% | 1017.2 hPa | 0 mm | - | - | - |
| 1787508000 | 34.44° C | 39% | 1017.2 hPa | 0 mm | - | - | - |
| 1787507700 | 34.44° C | 39% | 1017.3 hPa | 0 mm | - | - | - |
| 1787507400 | 35° C | 38% | 1017.4 hPa | 0 mm | - | - | - |
| 1787507100 | 35° C | 38% | 1017.5 hPa | 0 mm | - | - | - |
| 1787506800 | 33.89° C | 41% | 1017.7 hPa | 0 mm | - | - | - |
| 1787506500 | 35° C | 39% | 1017.9 hPa | 0 mm | - | - | - |
| 1787506200 | 33.89° C | 41% | 1018 hPa | 0 mm | - | - | - |
| 1787505900 | 34.44° C | 39% | 1018.2 hPa | 0 mm | - | - | - |
| 1787505600 | 34.44° C | 39% | 1018.3 hPa | 0 mm | - | - | - |
| 1787505300 | 34.44° C | 40% | 1018.3 hPa | 0 mm | - | - | - |
| 1787505000 | 33.33° C | 42% | 1018.5 hPa | 0 mm | - | - | - |
* Rain latest hour (hover to see other rain measurements)
** Current wind speed in m/s (hover to see current wind gust speed)